createdAt,value
2018-12-15T00:00:06.222Z,44.13
2018-12-15T00:01:08.684Z,44.09
2018-12-15T00:02:11.188Z,44.20
2018-12-15T00:03:13.674Z,44.21
2018-12-15T00:04:16.210Z,44.12
2018-12-15T00:05:18.848Z,44.19
2018-12-15T00:06:21.345Z,43.84
2018-12-15T00:07:23.813Z,44.17
2018-12-15T00:08:26.271Z,43.72
2018-12-15T00:09:28.749Z,43.70
2018-12-15T00:10:31.222Z,43.99
2018-12-15T00:11:33.699Z,44.30
2018-12-15T00:12:36.269Z,43.96
2018-12-15T00:13:38.822Z,44.22
2018-12-15T00:14:41.371Z,43.94
2018-12-15T00:15:43.918Z,44.29
2018-12-15T00:16:46.414Z,43.81
2018-12-15T00:17:49.362Z,43.88
2018-12-15T00:18:51.860Z,43.86
2018-12-15T00:19:54.362Z,44.69
2018-12-15T00:20:56.906Z,44.13
2018-12-15T00:21:59.375Z,44.30
2018-12-15T00:23:01.858Z,44.17
2018-12-15T00:24:04.324Z,43.68
2018-12-15T00:25:06.827Z,43.67
2018-12-15T00:26:09.306Z,43.86
2018-12-15T00:27:11.797Z,44.05
2018-12-15T00:28:14.278Z,44.29
2018-12-15T00:29:16.786Z,44.22
2018-12-15T00:30:19.287Z,43.90
2018-12-15T00:31:22.042Z,43.84
2018-12-15T00:32:24.544Z,43.60
2018-12-15T00:33:27.013Z,44.10
2018-12-15T00:34:29.472Z,43.85
2018-12-15T00:35:31.956Z,44.22
2018-12-15T00:36:34.424Z,44.61
2018-12-15T00:37:37.039Z,44.00
2018-12-15T00:38:39.519Z,44.11
2018-12-15T00:39:42.000Z,44.19
2018-12-15T00:40:44.506Z,44.58
2018-12-15T00:41:46.984Z,43.95
2018-12-15T00:42:49.445Z,44.36
2018-12-15T00:43:51.942Z,44.50
2018-12-15T00:44:54.407Z,44.13
2018-12-15T00:45:56.889Z,44.46
2018-12-15T00:46:59.369Z,44.40
2018-12-15T00:48:01.869Z,44.54
2018-12-15T00:49:04.350Z,44.60
2018-12-15T00:50:06.907Z,44.65
2018-12-15T00:51:09.484Z,44.15
2018-12-15T00:52:11.979Z,43.71
2018-12-15T00:53:14.450Z,43.93
2018-12-15T00:54:16.930Z,43.85
2018-12-15T00:55:19.406Z,43.58
2018-12-15T00:56:21.957Z,43.81
2018-12-15T00:57:24.488Z,44.30
2018-12-15T00:58:27.044Z,44.24
2018-12-15T00:59:29.525Z,44.37
2018-12-15T01:00:32.061Z,44.24
2018-12-15T01:01:34.566Z,44.44
2018-12-15T01:02:37.032Z,43.53
2018-12-15T01:03:39.493Z,44.27
2018-12-15T01:04:41.961Z,44.14
2018-12-15T01:05:44.455Z,44.70
2018-12-15T01:06:46.958Z,44.41
2018-12-15T01:07:49.437Z,44.58
2018-12-15T01:08:51.900Z,44.58
2018-12-15T01:09:54.356Z,44.64
2018-12-15T01:10:56.845Z,44.15
2018-12-15T01:11:59.358Z,43.81
2018-12-15T01:13:01.821Z,43.74
2018-12-15T01:14:04.299Z,43.92
2018-12-15T01:15:06.777Z,44.29
2018-12-15T01:16:09.258Z,44.34
2018-12-15T01:17:11.773Z,44.34
2018-12-15T01:18:14.330Z,44.38
2018-12-15T01:19:16.810Z,43.53
2018-12-15T01:20:19.282Z,43.57
2018-12-15T01:21:21.762Z,43.86
2018-12-15T01:22:24.259Z,43.99
2018-12-15T01:23:26.753Z,44.09
2018-12-15T01:24:29.244Z,43.70
2018-12-15T01:25:31.722Z,44.45
2018-12-15T01:26:34.203Z,43.77
2018-12-15T01:27:36.694Z,43.98
2018-12-15T01:28:39.185Z,44.27
2018-12-15T01:29:41.652Z,44.27
2018-12-15T01:30:44.131Z,44.39
2018-12-15T01:31:46.606Z,44.87
2018-12-15T01:32:49.106Z,44.46
2018-12-15T01:33:51.612Z,44.27
2018-12-15T01:34:54.105Z,44.46
2018-12-15T01:35:56.620Z,43.85
2018-12-15T01:36:59.078Z,44.35
2018-12-15T01:38:01.564Z,44.45
2018-12-15T01:39:06.208Z,43.76
2018-12-15T01:40:08.816Z,44.42
2018-12-15T01:41:11.298Z,43.64
2018-12-15T01:42:13.774Z,44.00
2018-12-15T01:43:16.285Z,44.30
2018-12-15T01:44:18.798Z,43.99
2018-12-15T01:45:21.293Z,44.28
2018-12-15T01:46:23.773Z,44.25
2018-12-15T01:47:27.038Z,43.82
2018-12-15T01:48:29.785Z,43.81
2018-12-15T01:49:32.258Z,43.67
2018-12-15T01:50:34.740Z,43.79
2018-12-15T01:51:37.312Z,43.95
2018-12-15T01:52:39.767Z,43.85
2018-12-15T01:53:42.262Z,44.61
2018-12-15T01:54:44.749Z,44.23
2018-12-15T01:55:47.236Z,44.64
2018-12-15T01:56:49.719Z,44.10
2018-12-15T01:57:52.210Z,44.29
2018-12-15T01:58:54.702Z,44.52
2018-12-15T01:59:57.399Z,44.17
2018-12-15T02:00:59.867Z,44.25
2018-12-15T02:02:02.362Z,44.15
2018-12-15T02:03:04.913Z,43.72
2018-12-15T02:04:07.392Z,44.30
2018-12-15T02:05:09.885Z,43.70
2018-12-15T02:06:12.352Z,43.79
2018-12-15T02:07:14.837Z,44.05
2018-12-15T02:08:17.311Z,43.98
2018-12-15T02:09:19.860Z,43.83
2018-12-15T02:10:22.370Z,44.07
2018-12-15T02:11:24.861Z,43.50
2018-12-15T02:12:27.342Z,44.17
2018-12-15T02:13:30.352Z,43.70
2018-12-15T02:14:32.861Z,44.10
2018-12-15T02:15:35.365Z,43.74
2018-12-15T02:16:37.846Z,43.92
2018-12-15T02:17:40.333Z,43.77
2018-12-15T02:18:42.808Z,44.36
2018-12-15T02:19:45.351Z,44.11
2018-12-15T02:20:47.830Z,43.40
2018-12-15T02:21:50.322Z,43.96
2018-12-15T02:22:52.799Z,44.53
2018-12-15T02:23:55.282Z,43.97
2018-12-15T02:24:57.769Z,44.36
2018-12-15T02:26:00.246Z,44.15
2018-12-15T02:27:02.712Z,43.67
2018-12-15T02:28:05.205Z,43.92
2018-12-15T02:29:07.688Z,43.54
2018-12-15T02:30:10.267Z,43.83
2018-12-15T02:31:12.764Z,44.21
2018-12-15T02:32:15.262Z,43.60
2018-12-15T02:33:17.787Z,43.66
2018-12-15T02:34:20.280Z,43.21
2018-12-15T02:35:22.802Z,44.30
2018-12-15T02:36:25.293Z,43.68
2018-12-15T02:37:29.769Z,43.98
2018-12-15T02:38:32.230Z,44.23
2018-12-15T02:39:34.802Z,44.72
2018-12-15T02:40:37.302Z,44.13
2018-12-15T02:41:47.049Z,43.92
2018-12-15T02:42:44.357Z,44.32
2018-12-15T02:43:46.838Z,44.11
2018-12-15T02:44:49.334Z,44.14
2018-12-15T02:45:51.830Z,44.44
2018-12-15T02:46:54.317Z,44.06
2018-12-15T02:47:56.793Z,44.13
2018-12-15T02:48:59.252Z,43.90
2018-12-15T02:50:01.727Z,43.99
2018-12-15T02:51:04.216Z,43.86
2018-12-15T02:52:06.695Z,43.90
2018-12-15T02:53:09.180Z,43.87
2018-12-15T02:54:11.636Z,44.06
2018-12-15T02:55:14.129Z,44.01
2018-12-15T02:56:16.608Z,43.89
2018-12-15T02:57:19.099Z,43.94
2018-12-15T02:58:21.582Z,44.01
2018-12-15T02:59:24.180Z,44.12
2018-12-15T03:00:26.729Z,43.42
2018-12-15T03:01:29.212Z,44.42
2018-12-15T03:02:31.696Z,44.16
2018-12-15T03:03:34.152Z,43.49
2018-12-15T03:04:36.640Z,43.56
2018-12-15T03:05:39.141Z,43.61
2018-12-15T03:06:41.631Z,43.97
2018-12-15T03:07:44.109Z,43.24
2018-12-15T03:08:46.591Z,43.30
2018-12-15T03:09:49.063Z,43.16
2018-12-15T03:10:51.601Z,43.56
2018-12-15T03:11:54.098Z,43.67
2018-12-15T03:12:56.654Z,43.20
2018-12-15T03:13:59.173Z,43.14
2018-12-15T03:15:01.652Z,43.14
2018-12-15T03:16:04.221Z,42.93
2018-12-15T03:17:06.861Z,43.14
2018-12-15T03:18:09.323Z,43.30
2018-12-15T03:19:11.866Z,43.48
2018-12-15T03:20:14.396Z,43.11
2018-12-15T03:21:16.860Z,43.53
2018-12-15T03:22:19.423Z,43.38
2018-12-15T03:23:21.908Z,42.95
2018-12-15T03:24:24.393Z,43.32
2018-12-15T03:25:26.885Z,42.85
2018-12-15T03:26:29.482Z,42.78
2018-12-15T03:27:31.981Z,43.39
2018-12-15T03:28:34.446Z,42.80
2018-12-15T03:29:36.936Z,42.52
2018-12-15T03:30:39.597Z,43.18
2018-12-15T03:31:42.095Z,43.29
2018-12-15T03:32:44.614Z,42.84
2018-12-15T03:33:47.100Z,43.14
2018-12-15T03:34:49.563Z,42.71
2018-12-15T03:35:52.024Z,42.36
2018-12-15T03:36:54.498Z,42.68
2018-12-15T03:37:56.981Z,42.23
2018-12-15T03:38:59.486Z,42.22
2018-12-15T03:40:01.945Z,42.84
2018-12-15T03:41:04.422Z,42.23
2018-12-15T03:42:06.917Z,42.36
2018-12-15T03:43:09.418Z,42.25
2018-12-15T03:44:11.883Z,42.61
2018-12-15T03:45:14.347Z,42.30
2018-12-15T03:46:16.801Z,42.40
2018-12-15T03:47:19.276Z,42.26
2018-12-15T03:48:21.767Z,42.23
2018-12-15T03:49:24.244Z,42.83
2018-12-15T03:50:26.719Z,42.05
2018-12-15T03:51:29.187Z,42.43
2018-12-15T03:52:31.716Z,42.25
2018-12-15T03:53:34.197Z,42.11
2018-12-15T03:54:36.674Z,42.33
2018-12-15T03:55:39.204Z,42.33
2018-12-15T03:56:41.678Z,42.20
2018-12-15T03:57:44.170Z,42.47
2018-12-15T03:58:46.666Z,41.65
2018-12-15T03:59:49.279Z,42.03
2018-12-15T04:00:51.755Z,41.50
2018-12-15T04:01:54.253Z,41.77
2018-12-15T04:02:56.718Z,41.84
2018-12-15T04:03:59.233Z,41.61
2018-12-15T04:05:01.707Z,42.05
2018-12-15T04:06:04.197Z,41.87
2018-12-15T04:07:06.694Z,42.35
2018-12-15T04:08:09.176Z,42.24
2018-12-15T04:09:11.671Z,41.76
2018-12-15T04:10:14.170Z,42.18
2018-12-15T04:11:16.646Z,42.32
2018-12-15T04:12:19.150Z,41.77
2018-12-15T04:13:21.623Z,41.75
2018-12-15T04:14:24.104Z,41.81
2018-12-15T04:15:26.588Z,41.73
2018-12-15T04:16:29.164Z,41.92
2018-12-15T04:17:31.662Z,41.40
2018-12-15T04:18:34.131Z,41.98
2018-12-15T04:19:36.608Z,41.56
2018-12-15T04:20:39.116Z,41.95
2018-12-15T04:21:41.649Z,41.56
2018-12-15T04:22:44.128Z,41.41
2018-12-15T04:23:47.399Z,41.82
2018-12-15T04:24:50.087Z,42.21
2018-12-15T04:25:52.585Z,42.15
2018-12-15T04:26:55.067Z,41.42
2018-12-15T04:27:57.524Z,41.89
2018-12-15T04:29:00.015Z,41.40
2018-12-15T04:30:02.835Z,41.39
2018-12-15T04:31:05.318Z,42.17
2018-12-15T04:32:07.863Z,41.87
2018-12-15T04:33:10.342Z,41.12
2018-12-15T04:34:12.815Z,41.37
2018-12-15T04:35:15.329Z,41.11
2018-12-15T04:36:18.655Z,41.64
2018-12-15T04:37:21.116Z,41.74
2018-12-15T04:38:23.598Z,40.97
2018-12-15T04:39:26.081Z,41.24
2018-12-15T04:40:28.752Z,41.92
2018-12-15T04:41:31.249Z,40.88
2018-12-15T04:42:33.740Z,41.64
2018-12-15T04:43:36.222Z,41.50
2018-12-15T04:44:38.702Z,41.47
2018-12-15T04:45:41.200Z,41.90
2018-12-15T04:46:43.678Z,42.21
2018-12-15T04:47:46.173Z,41.99
2018-12-15T04:48:48.764Z,42.56
2018-12-15T04:49:51.241Z,42.55
2018-12-15T04:50:53.738Z,42.35
2018-12-15T04:51:56.218Z,42.56
2018-12-15T04:52:58.686Z,42.52
2018-12-15T04:54:01.159Z,43.18
2018-12-15T04:55:04.092Z,43.04
2018-12-15T04:56:06.598Z,43.06
2018-12-15T04:57:09.083Z,43.36
2018-12-15T04:58:11.566Z,43.66
2018-12-15T04:59:14.058Z,44.08
2018-12-15T05:00:16.526Z,44.23
2018-12-15T05:01:19.016Z,44.50
2018-12-15T05:02:21.502Z,44.26
2018-12-15T05:03:23.979Z,44.33
2018-12-15T05:04:26.469Z,44.33
2018-12-15T05:05:28.946Z,44.52
2018-12-15T05:06:31.467Z,44.35
2018-12-15T05:07:33.973Z,44.45
2018-12-15T05:08:36.473Z,44.81
2018-12-15T05:09:38.959Z,45.91
2018-12-15T05:10:41.420Z,45.44
2018-12-15T05:11:43.919Z,45.68
2018-12-15T05:12:46.390Z,45.51
2018-12-15T05:13:48.871Z,46.18
2018-12-15T05:14:51.351Z,46.51
2018-12-15T05:15:53.845Z,46.49
2018-12-15T05:16:56.346Z,45.95
2018-12-15T05:17:58.826Z,46.32
2018-12-15T05:19:01.337Z,46.26
2018-12-15T05:20:04.477Z,46.37
2018-12-15T05:21:07.093Z,47.08
2018-12-15T05:22:09.777Z,46.91
2018-12-15T05:23:12.261Z,46.78
2018-12-15T05:24:14.724Z,47.11
2018-12-15T05:25:17.221Z,47.57
2018-12-15T05:26:19.711Z,47.40
2018-12-15T05:27:22.272Z,47.30
2018-12-15T05:28:24.750Z,47.71
2018-12-15T05:29:27.218Z,47.48
2018-12-15T05:30:29.716Z,47.84
2018-12-15T05:31:32.198Z,47.25
2018-12-15T05:32:34.681Z,47.27
2018-12-15T05:33:37.169Z,47.69
2018-12-15T05:34:39.678Z,47.90
2018-12-15T05:35:42.148Z,47.10
2018-12-15T05:36:44.641Z,47.00
2018-12-15T05:37:47.120Z,47.69
2018-12-15T05:38:49.579Z,47.34
2018-12-15T05:39:52.119Z,47.64
2018-12-15T05:40:54.594Z,47.04
2018-12-15T05:41:57.093Z,47.55
2018-12-15T05:42:59.636Z,47.45
2018-12-15T05:44:02.164Z,47.26
2018-12-15T05:45:05.571Z,46.95
2018-12-15T05:46:08.047Z,47.09
2018-12-15T05:47:10.534Z,46.51
2018-12-15T05:48:13.027Z,46.59
2018-12-15T05:49:15.514Z,46.81
2018-12-15T05:50:17.980Z,46.46
2018-12-15T05:51:20.538Z,46.57
2018-12-15T05:52:23.037Z,47.45
2018-12-15T05:53:25.549Z,47.32
2018-12-15T05:54:28.029Z,46.52
2018-12-15T05:55:30.514Z,46.31
2018-12-15T05:56:32.990Z,46.91
2018-12-15T05:57:35.483Z,46.89
2018-12-15T05:58:37.975Z,46.42
2018-12-15T05:59:40.448Z,47.46
2018-12-15T06:00:42.926Z,47.45
2018-12-15T06:01:45.400Z,46.89
2018-12-15T06:02:48.006Z,47.26
2018-12-15T06:03:50.513Z,47.24
2018-12-15T06:04:53.880Z,46.85
2018-12-15T06:05:56.359Z,47.01
2018-12-15T06:06:58.842Z,47.49
2018-12-15T06:08:01.304Z,46.74
2018-12-15T06:09:05.049Z,47.55
2018-12-15T06:10:07.616Z,47.57
2018-12-15T06:11:10.091Z,46.69
2018-12-15T06:12:12.570Z,47.07
2018-12-15T06:13:15.050Z,47.47
2018-12-15T06:14:17.550Z,47.60
2018-12-15T06:15:20.101Z,47.28
2018-12-15T06:16:22.601Z,46.89
2018-12-15T06:17:25.074Z,47.48
2018-12-15T06:18:31.655Z,47.39
2018-12-15T06:19:32.104Z,47.35
2018-12-15T06:20:34.583Z,47.37
2018-12-15T06:21:37.064Z,46.90
2018-12-15T06:22:39.556Z,47.38
2018-12-15T06:23:42.035Z,46.84
2018-12-15T06:24:44.515Z,47.08
2018-12-15T06:25:47.062Z,47.24
2018-12-15T06:26:49.538Z,47.24
2018-12-15T06:27:51.996Z,47.68
2018-12-15T06:28:54.512Z,46.80
2018-12-15T06:29:57.113Z,46.90
2018-12-15T06:30:59.594Z,46.88
2018-12-15T06:32:02.098Z,47.52
2018-12-15T06:33:04.590Z,47.44
2018-12-15T06:34:07.178Z,47.58
2018-12-15T06:35:09.654Z,47.59
2018-12-15T06:36:12.125Z,47.54
2018-12-15T06:37:14.599Z,47.79
2018-12-15T06:38:17.083Z,47.68
2018-12-15T06:39:19.574Z,47.90
2018-12-15T06:40:22.032Z,47.77
2018-12-15T06:41:24.504Z,47.36
2018-12-15T06:42:26.965Z,47.22
2018-12-15T06:43:29.703Z,47.18
2018-12-15T06:44:32.195Z,47.78
2018-12-15T06:45:34.670Z,47.76
2018-12-15T06:46:37.206Z,47.45
2018-12-15T06:47:39.681Z,47.79
2018-12-15T06:48:42.159Z,47.62
2018-12-15T06:49:44.734Z,47.72
2018-12-15T06:50:47.207Z,47.58
2018-12-15T06:51:49.690Z,48.02
2018-12-15T06:52:52.177Z,47.58
2018-12-15T06:53:54.736Z,47.52
2018-12-15T06:54:57.235Z,47.68
2018-12-15T06:55:59.852Z,47.39
2018-12-15T06:57:02.324Z,47.33
2018-12-15T06:58:04.842Z,47.99
2018-12-15T06:59:07.328Z,47.61
2018-12-15T07:00:09.944Z,47.89
2018-12-15T07:01:12.478Z,47.79
2018-12-15T07:02:14.970Z,47.87
2018-12-15T07:03:17.458Z,48.32
2018-12-15T07:04:19.969Z,48.44
2018-12-15T07:05:22.538Z,47.97
2018-12-15T07:06:25.042Z,48.45
2018-12-15T07:07:27.522Z,47.64
2018-12-15T07:08:30.013Z,47.72
2018-12-15T07:09:32.502Z,48.08
2018-12-15T07:10:35.024Z,47.91
2018-12-15T07:11:37.524Z,48.45
2018-12-15T07:12:40.108Z,47.97
2018-12-15T07:13:42.594Z,45.08
2018-12-15T07:14:45.083Z,45.37
2018-12-15T07:15:47.614Z,42.24
2018-12-15T07:16:50.110Z,41.83
2018-12-15T07:17:52.614Z,42.18
2018-12-15T07:18:55.126Z,41.58
2018-12-15T07:19:57.664Z,41.13
2018-12-15T07:21:00.241Z,40.79
2018-12-15T07:22:02.730Z,39.71
2018-12-15T07:23:05.206Z,40.10
2018-12-15T07:24:07.702Z,38.94
2018-12-15T07:25:11.352Z,36.16
2018-12-15T07:26:13.854Z,36.69
2018-12-15T07:27:16.349Z,36.98
2018-12-15T07:28:18.836Z,36.39
2018-12-15T07:29:21.299Z,36.67
2018-12-15T07:30:23.800Z,36.28
2018-12-15T07:31:26.304Z,35.62
2018-12-15T07:32:28.801Z,35.20
2018-12-15T07:33:31.301Z,35.91
2018-12-15T07:34:33.778Z,36.40
2018-12-15T07:35:36.347Z,35.29
2018-12-15T07:36:39.022Z,34.55
2018-12-15T07:38:19.534Z,33.96
2018-12-15T07:39:22.004Z,33.83
2018-12-15T07:40:24.514Z,34.30
2018-12-15T07:41:26.978Z,34.38
2018-12-15T07:42:29.477Z,34.09
2018-12-15T07:43:31.973Z,33.87
2018-12-15T07:44:34.455Z,33.61
2018-12-15T07:45:37.024Z,33.97
2018-12-15T07:46:44.647Z,34.13
2018-12-15T07:47:47.162Z,33.78
2018-12-15T07:48:51.522Z,33.53
2018-12-15T07:49:54.187Z,34.11
2018-12-15T07:50:56.674Z,33.81
2018-12-15T07:51:59.150Z,32.89
2018-12-15T07:53:01.754Z,33.38
2018-12-15T07:54:04.224Z,33.05
2018-12-15T07:55:06.772Z,33.44
2018-12-15T07:56:09.250Z,32.20
2018-12-15T07:57:11.738Z,32.46
2018-12-15T07:58:14.261Z,32.91
2018-12-15T07:59:16.733Z,32.70
2018-12-15T08:00:19.341Z,32.83
2018-12-15T08:01:21.842Z,33.11
2018-12-15T08:02:24.338Z,32.78
2018-12-15T08:03:26.847Z,33.76
2018-12-15T08:04:29.308Z,33.34
2018-12-15T08:05:31.844Z,33.31
2018-12-15T08:06:34.347Z,33.40
2018-12-15T08:07:36.920Z,32.84
2018-12-15T08:08:39.426Z,33.55
2018-12-15T08:09:41.981Z,33.32
2018-12-15T08:10:50.046Z,33.92
2018-12-15T08:11:58.261Z,32.63
2018-12-15T08:13:02.718Z,32.53
2018-12-15T08:14:07.198Z,32.76
2018-12-15T08:15:09.865Z,32.70
2018-12-15T08:16:12.366Z,32.49
2018-12-15T08:17:14.859Z,32.73
2018-12-15T08:18:17.324Z,33.26
2018-12-15T08:19:19.830Z,34.08
2018-12-15T08:20:22.728Z,33.87
2018-12-15T08:21:25.322Z,34.59
2018-12-15T08:22:27.788Z,34.85
2018-12-15T08:23:30.278Z,35.20
2018-12-15T08:24:32.883Z,35.37
2018-12-15T08:25:35.372Z,35.70
2018-12-15T08:26:37.952Z,36.11
2018-12-15T08:27:40.426Z,36.06
2018-12-15T08:28:42.967Z,36.44
2018-12-15T08:29:45.460Z,36.52
2018-12-15T08:30:48.036Z,36.45
2018-12-15T08:31:52.119Z,36.58
2018-12-15T08:32:54.654Z,36.49
2018-12-15T08:33:57.135Z,36.88
2018-12-15T08:34:59.650Z,37.21
2018-12-15T08:36:02.149Z,36.91
2018-12-15T08:37:04.639Z,37.81
2018-12-15T08:38:07.103Z,37.25
2018-12-15T08:39:09.592Z,37.49
2018-12-15T08:40:12.344Z,37.96
2018-12-15T08:41:14.804Z,37.95
2018-12-15T08:42:17.366Z,38.63
2018-12-15T08:43:19.864Z,38.43
2018-12-15T08:44:22.363Z,38.57
2018-12-15T08:45:24.949Z,38.64
2018-12-15T08:46:27.436Z,39.35
2018-12-15T08:47:29.920Z,39.30
2018-12-15T08:48:32.397Z,39.16
2018-12-15T08:49:34.897Z,39.24
2018-12-15T08:50:37.586Z,39.57
2018-12-15T08:51:40.084Z,40.00
2018-12-15T08:52:42.580Z,39.59
2018-12-15T08:53:45.080Z,39.70
2018-12-15T08:54:47.554Z,39.89
2018-12-15T08:55:50.198Z,40.00
2018-12-15T08:56:52.692Z,40.35
2018-12-15T08:57:55.171Z,40.62
2018-12-15T08:58:57.633Z,40.32
2018-12-15T09:00:00.108Z,40.50
2018-12-15T09:01:02.625Z,40.18
2018-12-15T09:02:05.482Z,40.50
2018-12-15T09:03:08.904Z,40.88
2018-12-15T09:04:11.374Z,40.69
2018-12-15T09:05:13.854Z,41.26
2018-12-15T09:06:16.365Z,41.01
2018-12-15T09:07:19.053Z,41.19
2018-12-15T09:08:21.555Z,41.48
2018-12-15T09:09:24.070Z,41.12
2018-12-15T09:10:26.536Z,41.20
2018-12-15T09:11:29.042Z,41.71
2018-12-15T09:12:31.527Z,41.67
2018-12-15T09:13:34.041Z,42.16
2018-12-15T09:14:36.540Z,42.05
2018-12-15T09:15:39.008Z,42.28
2018-12-15T09:16:41.535Z,42.21
2018-12-15T09:17:44.010Z,42.25
2018-12-15T09:18:46.494Z,41.90
2018-12-15T09:19:48.980Z,41.96
2018-12-15T09:20:51.452Z,43.18
2018-12-15T09:21:54.015Z,42.62
2018-12-15T09:22:56.527Z,42.92
2018-12-15T09:23:59.017Z,43.13
2018-12-15T09:25:01.518Z,42.67
2018-12-15T09:26:04.085Z,42.42
2018-12-15T09:27:06.584Z,42.74
2018-12-15T09:28:09.084Z,42.92
2018-12-15T09:29:11.572Z,42.71
2018-12-15T09:30:14.051Z,43.29
2018-12-15T09:31:16.531Z,43.30
2018-12-15T09:32:19.040Z,42.98
2018-12-15T09:33:21.626Z,42.95
2018-12-15T09:34:24.092Z,42.91
2018-12-15T09:35:26.585Z,43.49
2018-12-15T09:36:29.052Z,43.28
2018-12-15T09:37:31.568Z,43.93
2018-12-15T09:38:34.050Z,43.14
2018-12-15T09:39:36.526Z,43.54
2018-12-15T09:40:39.592Z,43.98
2018-12-15T09:41:42.071Z,43.69
2018-12-15T09:42:44.575Z,43.46
2018-12-15T09:43:47.070Z,43.30
2018-12-15T09:44:49.568Z,43.67
2018-12-15T09:45:52.042Z,43.53
2018-12-15T09:46:54.580Z,44.11
2018-12-15T09:47:57.078Z,44.03
2018-12-15T09:48:59.558Z,44.51
2018-12-15T09:50:02.065Z,44.30
2018-12-15T09:51:04.657Z,44.71
2018-12-15T09:52:07.157Z,44.52
2018-12-15T09:53:09.744Z,44.98
2018-12-15T09:54:12.236Z,42.00
2018-12-15T09:55:14.805Z,43.32
2018-12-15T09:56:17.594Z,39.12
2018-12-15T09:57:20.102Z,39.76
2018-12-15T09:58:22.729Z,39.19
2018-12-15T09:59:25.211Z,39.36
2018-12-15T10:00:27.709Z,39.11
2018-12-15T10:01:30.295Z,39.17
2018-12-15T10:02:32.763Z,37.70
2018-12-15T10:03:35.262Z,36.04
2018-12-15T10:04:37.738Z,36.34
2018-12-15T10:05:40.253Z,36.43
2018-12-15T10:06:42.774Z,35.45
2018-12-15T10:07:45.254Z,35.41
2018-12-15T10:08:47.754Z,36.02
2018-12-15T10:09:50.250Z,35.43
2018-12-15T10:10:52.720Z,35.56
2018-12-15T10:11:55.214Z,35.24
2018-12-15T10:12:57.723Z,35.20
2018-12-15T10:14:00.241Z,34.57
2018-12-15T10:15:02.704Z,34.92
2018-12-15T10:16:05.168Z,34.70
2018-12-15T10:17:08.937Z,34.63
2018-12-15T10:18:11.923Z,34.99
2018-12-15T10:19:14.415Z,33.98
2018-12-15T10:20:16.880Z,33.71
2018-12-15T10:21:19.394Z,33.88
2018-12-15T10:22:21.886Z,33.38
2018-12-15T10:23:24.412Z,33.82
2018-12-15T10:24:26.903Z,32.86
2018-12-15T10:25:29.404Z,32.83
2018-12-15T10:26:31.919Z,33.26
2018-12-15T10:27:34.410Z,34.06
2018-12-15T10:28:37.062Z,33.74
2018-12-15T10:29:45.262Z,33.22
2018-12-15T10:30:53.429Z,33.18
2018-12-15T10:32:01.636Z,33.71
2018-12-15T10:33:04.267Z,33.81
2018-12-15T10:34:06.754Z,34.23
2018-12-15T10:35:09.255Z,34.41
2018-12-15T10:36:11.753Z,33.58
2018-12-15T10:37:14.242Z,33.62
2018-12-15T10:38:16.754Z,33.23
2018-12-15T10:39:19.254Z,33.30
2018-12-15T10:40:21.885Z,33.64
2018-12-15T10:41:24.353Z,33.74
2018-12-15T10:42:26.834Z,33.54
2018-12-15T10:43:29.320Z,33.75
2018-12-15T10:44:31.811Z,31.79
2018-12-15T10:45:35.162Z,32.70
2018-12-15T10:46:37.689Z,31.93
2018-12-15T10:47:40.197Z,32.12
2018-12-15T10:48:42.737Z,31.98
2018-12-15T10:49:45.260Z,32.33
2018-12-15T10:50:47.992Z,32.00
2018-12-15T10:51:50.487Z,32.59
2018-12-15T10:52:52.984Z,31.76
2018-12-15T10:53:55.474Z,31.82
2018-12-15T10:54:57.965Z,31.83
2018-12-15T10:56:00.450Z,32.55
2018-12-15T10:57:02.926Z,32.30
2018-12-15T10:58:05.419Z,31.68
2018-12-15T10:59:07.907Z,32.30
2018-12-15T11:00:12.650Z,31.50
2018-12-15T11:01:20.832Z,31.70
2018-12-15T11:02:23.310Z,31.87
2018-12-15T11:03:25.814Z,31.99
2018-12-15T11:04:28.294Z,32.51
2018-12-15T11:05:30.779Z,32.14
2018-12-15T11:06:33.285Z,32.65
2018-12-15T11:07:35.783Z,32.83
2018-12-15T11:08:38.248Z,33.34
2018-12-15T11:09:40.728Z,33.18
2018-12-15T11:10:43.212Z,33.05
2018-12-15T11:11:45.780Z,32.70
2018-12-15T11:12:48.271Z,33.34
2018-12-15T11:13:50.758Z,32.73
2018-12-15T11:14:53.219Z,32.87
2018-12-15T11:15:55.770Z,33.26
2018-12-15T11:16:58.266Z,32.65
2018-12-15T11:18:00.728Z,32.68
2018-12-15T11:19:03.286Z,32.61
2018-12-15T11:20:05.894Z,32.76
2018-12-15T11:21:08.379Z,32.47
2018-12-15T11:22:10.881Z,32.57
2018-12-15T11:23:13.480Z,32.95
2018-12-15T11:24:15.962Z,32.68
2018-12-15T11:25:18.491Z,33.20
2018-12-15T11:26:21.010Z,32.96
2018-12-15T11:27:23.484Z,33.40
2018-12-15T11:28:25.973Z,33.17
2018-12-15T11:29:28.466Z,33.50
2018-12-15T11:30:30.960Z,33.15
2018-12-15T11:31:33.445Z,33.93
2018-12-15T11:32:35.904Z,33.55
2018-12-15T11:33:38.428Z,34.55
2018-12-15T11:34:40.913Z,35.03
2018-12-15T11:35:43.398Z,34.59
2018-12-15T11:36:45.899Z,35.06
2018-12-15T11:37:48.380Z,35.19
2018-12-15T11:38:50.874Z,35.67
2018-12-15T11:39:53.373Z,35.20
2018-12-15T11:40:55.885Z,34.59
2018-12-15T11:41:58.462Z,34.74
2018-12-15T11:43:00.931Z,34.46
2018-12-15T11:44:03.392Z,35.02
2018-12-15T11:45:06.000Z,35.06
2018-12-15T11:46:08.503Z,34.51
2018-12-15T11:47:11.010Z,35.04
2018-12-15T11:48:13.570Z,34.75
2018-12-15T11:49:16.057Z,33.59
2018-12-15T11:50:18.607Z,33.83
2018-12-15T11:51:21.131Z,34.07
2018-12-15T11:52:23.729Z,33.42
2018-12-15T11:53:26.226Z,33.64
2018-12-15T11:54:28.717Z,33.46
2018-12-15T11:55:31.194Z,33.68
2018-12-15T11:56:33.665Z,33.24
2018-12-15T11:57:36.230Z,33.36
2018-12-15T11:58:38.704Z,33.83
2018-12-15T11:59:41.184Z,32.77
2018-12-15T12:00:43.803Z,33.72
2018-12-15T12:01:46.288Z,33.91
2018-12-15T12:02:48.941Z,33.87
2018-12-15T12:03:51.582Z,33.30
2018-12-15T12:04:54.070Z,33.66
2018-12-15T12:05:56.598Z,33.12
2018-12-15T12:06:59.101Z,32.67
2018-12-15T12:08:01.606Z,32.94
2018-12-15T12:09:05.878Z,32.48
2018-12-15T12:10:08.369Z,32.40
2018-12-15T12:11:10.960Z,32.49
2018-12-15T12:12:13.518Z,32.65
2018-12-15T12:13:16.007Z,32.13
2018-12-15T12:14:18.506Z,32.68
2018-12-15T12:15:20.997Z,32.69
2018-12-15T12:16:23.489Z,31.79
2018-12-15T12:17:26.012Z,31.58
2018-12-15T12:18:28.522Z,32.36
2018-12-15T12:19:31.022Z,32.04
2018-12-15T12:20:34.163Z,32.09
2018-12-15T12:21:36.740Z,32.50
2018-12-15T12:22:39.249Z,32.33
2018-12-15T12:23:41.762Z,32.80
2018-12-15T12:24:44.257Z,32.80
2018-12-15T12:25:46.743Z,32.51
2018-12-15T12:26:49.261Z,33.30
2018-12-15T12:27:51.764Z,33.07
2018-12-15T12:28:54.327Z,33.28
2018-12-15T12:29:56.811Z,33.03
2018-12-15T12:30:59.280Z,33.66
2018-12-15T12:32:01.774Z,33.64
2018-12-15T12:33:04.346Z,33.44
2018-12-15T12:34:06.827Z,33.62
2018-12-15T12:35:09.310Z,33.60
2018-12-15T12:36:11.830Z,33.59
2018-12-15T12:37:14.329Z,33.16
2018-12-15T12:38:16.797Z,33.64
2018-12-15T12:39:19.280Z,33.14
2018-12-15T12:40:21.874Z,33.54
2018-12-15T12:41:24.368Z,33.58
2018-12-15T12:42:26.852Z,33.84
2018-12-15T12:43:29.316Z,33.22
2018-12-15T12:44:31.833Z,33.93
2018-12-15T12:45:34.318Z,34.15
2018-12-15T12:46:36.797Z,33.78
2018-12-15T12:47:39.278Z,33.18
2018-12-15T12:48:41.755Z,33.43
2018-12-15T12:49:44.269Z,33.98
2018-12-15T12:50:46.768Z,33.60
2018-12-15T12:51:49.268Z,33.32
2018-12-15T12:52:51.844Z,33.45
2018-12-15T12:53:54.340Z,33.34
2018-12-15T12:54:56.853Z,33.85
2018-12-15T12:55:59.334Z,34.03
2018-12-15T12:57:01.801Z,34.35
2018-12-15T12:58:04.354Z,33.77
2018-12-15T12:59:06.825Z,34.33
2018-12-15T13:00:09.544Z,34.63
2018-12-15T13:01:12.022Z,34.08
2018-12-15T13:02:14.483Z,34.78
2018-12-15T13:03:16.948Z,34.07
2018-12-15T13:04:19.450Z,34.03
2018-12-15T13:05:21.941Z,34.01
2018-12-15T13:06:24.432Z,34.54
2018-12-15T13:07:26.895Z,34.90
2018-12-15T13:08:29.357Z,34.16
2018-12-15T13:09:31.839Z,35.10
2018-12-15T13:10:34.354Z,34.89
2018-12-15T13:11:36.903Z,35.14
2018-12-15T13:12:39.451Z,35.45
2018-12-15T13:13:42.041Z,35.86
2018-12-15T13:14:44.503Z,35.08
2018-12-15T13:15:46.983Z,35.57
2018-12-15T13:16:49.528Z,35.70
2018-12-15T13:17:52.007Z,36.00
2018-12-15T13:18:55.924Z,36.39
2018-12-15T13:20:03.621Z,36.18
2018-12-15T13:21:03.150Z,36.06
2018-12-15T13:22:05.635Z,36.30
2018-12-15T13:23:08.260Z,36.49
2018-12-15T13:24:10.730Z,36.12
2018-12-15T13:25:13.209Z,36.46
2018-12-15T13:26:15.725Z,36.54